Anabel, Missouri
Current Conditions -  °F | °C
As of 9:55 AM on Friday 28 Nov 2014 (Local Time) from KIRK Reporting Station
Clear Clear  
Wind Chill: 29°   Ceiling: Unl
Heat Index: 37°   Visibility: 10mi
Dew Point: 28°   Wind: 12mph
Humidity: 70%   Direction: 190°S
Pressure: 30"   Gusts: NA
Location:  39.75°N, 92.34°W
Report Text: KIRK 281555Z AUTO 19010KT 10SM CLR 03/M02 A3000 RMK AO2 SLP172 T00281022
Loading
Personal Weather Stations






























Interactive Weather Map New forecast layout! Learn more

10-Day Weather Forecast

Advertisements
Track Severe Weather on mobile